Time;durP1;ratioP1;P1;durP2;ratioP2;P2;SDS_P1;SDS_P2;PMS_P1;PMS_P2;Temp;Humidity;BMP_temperature;BMP_pressure;BME280_temperature;BME280_humidity;BME280_pressure;Samples;Min_cycle;Max_cycle;Signal;HPM_P1;HPM_P2
2023/04/09 00:01:07;;;;;;;31.17;21.98;;;7.70;99.90;;;;;;4987662;28;20220;-82
2023/04/09 00:03:35;;;;;;;34.28;26.13;;;7.70;99.90;;;;;;5010616;28;20212;-79
2023/04/09 00:06:04;;;;;;;34.13;23.42;;;7.60;99.90;;;;;;4998911;28;20259;-80
2023/04/09 00:08:31;;;;;;;35.08;23.45;;;7.70;99.90;;;;;;5005204;28;20214;-82
2023/04/09 00:10:58;;;;;;;36.85;25.05;;;7.60;99.90;;;;;;5007046;28;20252;-82
2023/04/09 00:13:26;;;;;;;33.25;22.98;;;7.60;99.90;;;;;;5004699;28;20293;-82
2023/04/09 00:16:07;;;;;;;32.97;23.45;;;7.60;99.90;;;;;;5016892;28;20429;-81
2023/04/09 00:18:35;;;;;;;37.67;23.25;;;7.60;99.90;;;;;;4998682;28;20201;-80
2023/04/09 00:21:01;;;;;;;30.52;20.58;;;7.70;99.90;;;;;;5000160;28;20225;-82
2023/04/09 00:23:28;;;;;;;42.50;34.28;;;7.50;99.90;;;;;;5007394;28;20249;-79
2023/04/09 00:25:55;;;;;;;40.47;27.88;;;7.50;99.90;;;;;;4992082;28;20206;-80
2023/04/09 00:28:22;;;;;;;35.92;22.77;;;7.50;99.90;;;;;;5003600;28;20206;-81
2023/04/09 00:30:49;;;;;;;35.92;23.10;;;7.60;99.90;;;;;;5010572;28;20257;-80
2023/04/09 00:33:15;;;;;;;31.65;23.38;;;7.60;99.90;;;;;;5015771;28;20233;-80
2023/04/09 00:35:42;;;;;;;32.63;22.52;;;7.60;99.90;;;;;;5010676;28;20216;-81
2023/04/09 00:38:09;;;;;;;32.78;23.27;;;7.60;99.90;;;;;;5009387;28;20551;-80
2023/04/09 00:40:37;;;;;;;30.13;23.05;;;7.70;99.90;;;;;;5007531;28;20254;-81
2023/04/09 00:43:04;;;;;;;36.15;22.80;;;7.60;99.90;;;;;;5004761;28;20209;-82
2023/04/09 00:45:32;;;;;;;35.20;23.95;;;7.60;99.90;;;;;;5006619;28;20212;-80
2023/04/09 00:47:59;;;;;;;31.35;23.77;;;7.50;99.90;;;;;;4997526;28;20216;-80
2023/04/09 00:50:27;;;;;;;32.97;24.52;;;7.60;99.90;;;;;;5005404;28;20770;-82
2023/04/09 00:52:54;;;;;;;33.83;23.67;;;7.60;99.90;;;;;;5025426;28;20446;-80
2023/04/09 00:55:21;;;;;;;33.38;22.98;;;7.60;99.90;;;;;;5011955;28;20529;-80
2023/04/09 00:57:48;;;;;;;38.75;25.67;;;7.60;99.90;;;;;;5001529;28;20229;-81
2023/04/09 01:00:15;;;;;;;33.33;24.75;;;7.60;99.90;;;;;;5006853;28;20260;-82
2023/04/09 01:02:42;;;;;;;32.60;24.50;;;7.60;99.90;;;;;;5002437;28;20558;-80
2023/04/09 01:05:11;;;;;;;35.10;23.85;;;7.60;99.90;;;;;;4999863;28;20213;-80
2023/04/09 01:08:00;;;;;;;34.97;25.10;;;7.50;99.90;;;;;;5001091;28;20210;-81
2023/04/09 01:10:45;;;;;;;42.28;27.25;;;7.50;99.90;;;;;;5011581;28;20236;-81
2023/04/09 01:13:19;;;;;;;40.80;26.73;;;7.50;99.90;;;;;;5001528;28;20207;-82
2023/04/09 01:15:54;;;;;;;38.38;24.95;;;7.50;99.90;;;;;;5006148;28;20231;-83
2023/04/09 01:18:28;;;;;;;39.33;26.17;;;7.50;99.90;;;;;;4998060;28;20205;-83
2023/04/09 01:21:01;;;;;;;38.47;25.50;;;7.40;99.90;;;;;;5008044;28;20244;-80
2023/04/09 01:23:54;;;;;;;32.33;24.00;;;7.50;99.90;;;;;;4996814;28;20212;-82
2023/04/09 01:26:46;;;;;;;36.75;24.98;;;7.50;99.90;;;;;;4997932;28;20218;-82
2023/04/09 01:29:16;;;;;;;34.65;25.70;;;7.50;99.90;;;;;;4995028;28;20207;-82
2023/04/09 01:31:44;;;;;;;35.80;24.23;;;7.40;99.90;;;;;;5003042;28;20212;-83
2023/04/09 01:34:14;;;;;;;39.08;28.50;;;7.40;99.90;;;;;;5009320;28;20457;-82
2023/04/09 01:36:49;;;;;;;40.20;27.55;;;7.40;99.90;;;;;;5001009;28;20260;-82
2023/04/09 01:39:16;;;;;;;39.33;26.85;;;7.40;99.90;;;;;;5009854;28;20212;-82
2023/04/09 01:41:45;;;;;;;40.63;28.50;;;7.40;99.90;;;;;;5010496;28;20208;-82
2023/04/09 01:44:13;;;;;;;36.15;24.38;;;7.40;99.90;;;;;;5003323;28;20559;-83
2023/04/09 01:46:40;;;;;;;37.28;26.38;;;7.40;99.90;;;;;;5000150;28;20540;-81
2023/04/09 01:49:10;;;;;;;36.63;25.45;;;7.50;99.90;;;;;;5003150;28;20436;-82
2023/04/09 01:51:37;;;;;;;38.30;25.60;;;7.50;99.90;;;;;;5008465;28;20212;-82
2023/04/09 01:54:04;;;;;;;37.63;29.20;;;7.50;99.90;;;;;;5005599;28;20665;-83
2023/04/09 01:56:46;;;;;;;34.47;24.73;;;7.40;99.90;;;;;;5011154;28;20209;-83
2023/04/09 01:59:13;;;;;;;46.20;27.90;;;7.40;99.90;;;;;;5006771;28;20256;-83
2023/04/09 02:01:48;;;;;;;35.08;26.08;;;7.40;99.90;;;;;;5004684;28;20248;-81
2023/04/09 02:04:23;;;;;;;37.83;25.40;;;7.30;99.90;;;;;;5001787;28;20210;-81
2023/04/09 02:06:57;;;;;;;38.10;26.17;;;7.30;99.90;;;;;;5008742;28;20206;-79
2023/04/09 02:09:28;;;;;;;42.90;25.98;;;7.30;99.90;;;;;;5009685;28;20198;-81
2023/04/09 02:11:58;;;;;;;39.97;27.17;;;7.40;99.90;;;;;;4996132;28;20213;-81
2023/04/09 02:14:27;;;;;;;48.58;28.73;;;7.30;99.90;;;;;;5007939;28;20272;-80
2023/04/09 02:16:55;;;;;;;45.47;28.23;;;7.30;99.90;;;;;;5003298;28;20197;-81
2023/04/09 02:19:22;;;;;;;39.70;27.55;;;7.30;99.90;;;;;;5003497;28;20289;-81
2023/04/09 02:21:49;;;;;;;39.45;28.30;;;7.20;99.90;;;;;;5021610;28;20178;-82
2023/04/09 02:24:16;;;;;;;41.00;28.23;;;7.30;99.90;;;;;;5028877;28;20201;-83
2023/04/09 02:26:43;;;;;;;37.03;26.95;;;7.20;99.90;;;;;;5016331;28;20209;-81
2023/04/09 02:29:10;;;;;;;39.05;27.08;;;7.20;99.90;;;;;;5010775;28;20216;-81
2023/04/09 02:31:36;;;;;;;42.97;27.30;;;7.10;99.90;;;;;;5008875;28;20213;-80
2023/04/09 02:34:03;;;;;;;42.17;29.67;;;7.10;99.90;;;;;;5001174;28;20438;-79
2023/04/09 02:36:33;;;;;;;43.15;28.33;;;7.10;99.90;;;;;;5009812;28;20213;-79
2023/04/09 02:39:00;;;;;;;46.88;31.55;;;7.10;99.90;;;;;;5004469;28;20370;-78
2023/04/09 02:41:26;;;;;;;40.55;30.20;;;7.00;99.90;;;;;;5013014;28;20732;-79
2023/04/09 02:43:53;;;;;;;45.08;29.50;;;7.00;99.90;;;;;;5008781;28;20210;-81
2023/04/09 02:46:20;;;;;;;45.75;29.25;;;6.90;99.90;;;;;;5001920;28;20260;-82
2023/04/09 02:48:47;;;;;;;46.70;29.90;;;6.80;99.90;;;;;;5014454;28;20248;-80
2023/04/09 02:51:16;;;;;;;44.50;28.02;;;6.90;99.90;;;;;;5008184;28;20206;-81
2023/04/09 02:53:44;;;;;;;48.20;31.15;;;7.00;99.90;;;;;;5001698;28;20291;-78
2023/04/09 02:56:11;;;;;;;41.13;27.95;;;6.90;99.90;;;;;;5011368;28;20260;-81
2023/04/09 02:58:38;;;;;;;50.20;30.80;;;6.90;99.90;;;;;;5009774;28;20209;-80
2023/04/09 03:01:07;;;;;;;44.78;29.63;;;6.80;99.90;;;;;;5008323;28;20197;-82
2023/04/09 03:03:36;;;;;;;44.08;30.17;;;6.70;99.90;;;;;;5010752;28;20521;-82
2023/04/09 03:06:03;;;;;;;49.63;30.05;;;6.70;99.90;;;;;;5002493;28;20209;-78
2023/04/09 03:08:32;;;;;;;49.72;32.20;;;6.70;99.90;;;;;;5011403;28;20376;-82
2023/04/09 03:10:59;;;;;;;48.22;30.88;;;6.70;99.90;;;;;;5008095;28;20201;-82
2023/04/09 03:13:30;;;;;;;53.42;32.88;;;6.70;99.90;;;;;;5030654;28;20221;-83
2023/04/09 03:15:57;;;;;;;49.47;32.95;;;6.70;99.90;;;;;;5026989;28;20205;-80
2023/04/09 03:18:24;;;;;;;45.75;31.35;;;6.70;99.90;;;;;;5021361;28;20249;-80
2023/04/09 03:20:54;;;;;;;42.53;28.48;;;6.70;99.90;;;;;;5024504;28;20218;-81
2023/04/09 03:23:21;;;;;;;48.95;31.05;;;6.80;99.90;;;;;;5016231;28;20197;-79
2023/04/09 03:25:58;;;;;;;45.20;29.80;;;6.80;99.90;;;;;;5003706;28;20201;-81
2023/04/09 03:28:25;;;;;;;43.60;30.50;;;6.70;99.90;;;;;;5017731;28;20204;-81
2023/04/09 03:30:52;;;;;;;42.60;29.63;;;6.90;99.90;;;;;;5012765;28;20216;-81
2023/04/09 03:33:19;;;;;;;43.58;28.75;;;6.80;99.90;;;;;;5000965;28;20239;-81
2023/04/09 03:35:46;;;;;;;49.50;31.23;;;7.00;99.90;;;;;;5001088;28;20275;-81
2023/04/09 03:38:13;;;;;;;43.83;30.70;;;6.90;99.90;;;;;;5003889;28;20229;-81
2023/04/09 03:40:41;;;;;;;47.72;29.58;;;7.00;99.90;;;;;;5001434;28;20197;-81
2023/04/09 03:43:08;;;;;;;44.88;29.27;;;6.90;99.90;;;;;;4999121;28;20205;-80
2023/04/09 03:45:37;;;;;;;47.67;31.85;;;7.00;99.90;;;;;;5008508;28;20210;-81
2023/04/09 03:48:05;;;;;;;48.67;32.38;;;6.90;99.90;;;;;;5005863;28;20223;-81
2023/04/09 03:50:38;;;;;;;45.28;29.00;;;6.90;99.90;;;;;;5000157;28;20545;-80
2023/04/09 03:53:05;;;;;;;48.40;29.42;;;6.90;99.90;;;;;;5015353;28;20375;-82
2023/04/09 03:55:32;;;;;;;45.08;31.48;;;6.90;99.90;;;;;;5010885;28;20431;-79
2023/04/09 03:57:59;;;;;;;44.15;30.20;;;6.80;99.90;;;;;;5013815;28;20213;-81
2023/04/09 04:00:27;;;;;;;46.65;29.40;;;6.90;99.90;;;;;;5012101;28;20206;-81
2023/04/09 04:02:54;;;;;;;47.83;31.67;;;6.90;99.90;;;;;;5002833;28;20205;-82
2023/04/09 04:05:24;;;;;;;48.85;31.15;;;7.00;99.90;;;;;;5015749;28;20232;-82
2023/04/09 04:07:51;;;;;;;52.30;30.52;;;6.90;99.90;;;;;;5002274;28;20207;-81
2023/04/09 04:10:21;;;;;;;45.78;30.48;;;7.00;99.90;;;;;;5009919;28;20217;-81
2023/04/09 04:12:47;;;;;;;41.55;28.50;;;7.10;99.90;;;;;;5001543;28;20307;-81
2023/04/09 04:15:14;;;;;;;44.75;30.38;;;7.10;99.90;;;;;;5015489;28;20320;-81
2023/04/09 04:17:42;;;;;;;45.47;31.65;;;7.00;99.90;;;;;;4999990;28;20206;-83
2023/04/09 04:20:11;;;;;;;46.00;32.15;;;7.10;99.90;;;;;;4997636;28;20213;-80
2023/04/09 04:22:39;;;;;;;43.60;29.20;;;7.20;99.90;;;;;;5009407;28;20237;-82
2023/04/09 04:25:05;;;;;;;44.22;29.05;;;7.30;99.90;;;;;;5000906;28;20210;-82
2023/04/09 04:27:32;;;;;;;49.63;28.38;;;7.20;99.90;;;;;;5012554;28;20414;-81
2023/04/09 04:30:00;;;;;;;47.75;29.52;;;7.30;99.90;;;;;;5009679;28;20248;-83
2023/04/09 04:32:29;;;;;;;42.90;29.92;;;7.10;99.90;;;;;;4996397;28;20241;-82
2023/04/09 04:34:56;;;;;;;40.28;29.05;;;7.10;99.90;;;;;;5001529;28;20237;-83
2023/04/09 04:37:23;;;;;;;52.13;29.83;;;7.20;99.90;;;;;;5011515;28;20259;-81
2023/04/09 04:39:50;;;;;;;43.95;30.13;;;7.20;99.90;;;;;;5003455;28;20206;-81
2023/04/09 04:42:17;;;;;;;44.00;30.42;;;7.30;99.90;;;;;;5004597;28;20209;-82
2023/04/09 04:44:44;;;;;;;42.28;28.48;;;7.40;99.90;;;;;;4999572;28;20202;-80
2023/04/09 04:47:11;;;;;;;47.90;32.35;;;7.50;99.90;;;;;;5005571;28;20205;-84
2023/04/09 04:49:38;;;;;;;44.72;30.77;;;7.50;99.90;;;;;;5007071;28;20197;-82
2023/04/09 04:52:06;;;;;;;49.70;32.40;;;7.50;99.90;;;;;;5007188;28;20206;-81
2023/04/09 04:54:33;;;;;;;48.63;33.15;;;7.70;99.90;;;;;;5003036;28;20506;-83
2023/04/09 04:57:00;;;;;;;46.50;32.13;;;7.80;99.90;;;;;;4999212;28;20407;-82
2023/04/09 04:59:28;;;;;;;46.17;29.58;;;7.90;99.90;;;;;;5007686;28;20220;-82
2023/04/09 05:01:55;;;;;;;46.97;30.23;;;8.20;99.90;;;;;;5005534;28;20228;-81
2023/04/09 05:04:24;;;;;;;43.10;30.50;;;8.50;99.90;;;;;;5017832;28;20197;-84
2023/04/09 05:06:51;;;;;;;49.70;31.15;;;8.70;99.90;;;;;;5011498;28;20205;-84
2023/04/09 05:09:18;;;;;;;43.20;32.55;;;8.70;99.90;;;;;;5004986;28;20232;-84
2023/04/09 05:11:48;;;;;;;43.42;31.17;;;8.80;99.90;;;;;;5002870;28;20478;-82
2023/04/09 05:14:15;;;;;;;44.63;30.38;;;8.80;99.90;;;;;;5003571;28;20627;-83
2023/04/09 05:16:43;;;;;;;47.92;31.67;;;8.70;99.90;;;;;;5012333;28;20501;-81
2023/04/09 05:19:10;;;;;;;46.10;30.42;;;8.80;99.90;;;;;;4999934;28;20707;-84
2023/04/09 05:21:38;;;;;;;39.38;28.95;;;9.00;99.90;;;;;;4999850;28;20207;-83
2023/04/09 05:24:05;;;;;;;42.33;28.80;;;9.00;99.90;;;;;;5002340;28;20215;-81
2023/04/09 05:26:32;;;;;;;46.47;31.98;;;8.80;99.90;;;;;;5002850;28;20211;-81
2023/04/09 05:28:59;;;;;;;45.85;30.92;;;8.90;99.90;;;;;;5009718;28;20209;-81
2023/04/09 05:31:28;;;;;;;52.70;33.15;;;8.80;99.90;;;;;;4998906;28;20218;-82
2023/04/09 05:33:55;;;;;;;47.25;32.10;;;8.70;99.90;;;;;;5003839;28;20242;-82
2023/04/09 05:36:22;;;;;;;46.45;30.83;;;8.50;99.90;;;;;;5003350;28;20225;-81
2023/04/09 05:38:49;;;;;;;48.22;32.15;;;8.50;99.90;;;;;;5006221;28;20213;-80
2023/04/09 05:41:16;;;;;;;49.97;30.80;;;8.60;99.90;;;;;;5005738;28;20232;-81
2023/04/09 05:43:43;;;;;;;49.55;31.02;;;8.60;99.90;;;;;;4998689;28;20566;-81
2023/04/09 05:46:10;;;;;;;49.17;32.28;;;8.50;99.90;;;;;;4999773;28;20209;-80
2023/04/09 05:48:37;;;;;;;48.08;31.05;;;8.60;99.90;;;;;;5003357;28;20506;-80
2023/04/09 05:51:03;;;;;;;40.58;29.25;;;8.60;99.90;;;;;;4989199;28;20211;-82
2023/04/09 05:53:31;;;;;;;50.17;31.48;;;8.20;99.90;;;;;;4999466;28;20576;-82
2023/04/09 05:55:58;;;;;;;46.97;31.83;;;8.30;99.90;;;;;;5001083;28;20229;-80
2023/04/09 05:58:24;;;;;;;50.00;33.22;;;8.30;99.90;;;;;;5006150;28;20207;-81
2023/04/09 06:00:52;;;;;;;51.95;33.53;;;8.20;99.90;;;;;;4999670;28;20237;-82
2023/04/09 06:03:21;;;;;;;53.85;33.20;;;8.20;99.90;;;;;;5006796;28;20269;-80
2023/04/09 06:05:48;;;;;;;51.28;33.15;;;8.00;99.90;;;;;;5005328;28;20268;-81
2023/04/09 06:08:15;;;;;;;45.35;30.55;;;7.90;99.90;;;;;;5012157;28;20187;-83
2023/04/09 06:10:42;;;;;;;49.47;35.38;;;7.90;99.90;;;;;;4995710;28;20323;-81
2023/04/09 06:13:09;;;;;;;50.97;32.95;;;8.10;99.90;;;;;;5001477;28;20216;-81
2023/04/09 06:15:38;;;;;;;49.83;33.60;;;8.30;99.90;;;;;;4986354;28;20230;-82
2023/04/09 06:18:05;;;;;;;49.22;33.28;;;8.20;99.90;;;;;;4997062;28;20221;-81
2023/04/09 06:20:32;;;;;;;50.80;31.60;;;8.20;99.90;;;;;;5010097;28;20205;-82
2023/04/09 06:22:59;;;;;;;50.80;34.10;;;8.20;99.90;;;;;;4996242;28;20273;-82
2023/04/09 06:25:26;;;;;;;54.67;31.60;;;8.30;99.90;;;;;;4997544;28;20202;-81
2023/04/09 06:27:53;;;;;;;48.95;33.83;;;8.30;99.90;;;;;;5003313;28;20290;-82
2023/04/09 06:30:20;;;;;;;50.35;31.88;;;8.50;99.90;;;;;;5009522;28;20213;-81
2023/04/09 06:32:47;;;;;;;50.25;32.03;;;8.50;99.90;;;;;;5002593;28;20225;-81
2023/04/09 06:35:20;;;;;;;48.90;32.58;;;8.60;99.90;;;;;;5000458;28;20412;-81
2023/04/09 06:37:47;;;;;;;51.72;32.80;;;8.60;99.90;;;;;;5002251;28;20210;-81
2023/04/09 06:40:14;;;;;;;48.90;30.98;;;8.60;99.90;;;;;;4999753;28;20228;-81
2023/04/09 06:42:42;;;;;;;51.80;30.60;;;8.80;99.90;;;;;;5002828;28;20208;-81
2023/04/09 06:45:09;;;;;;;44.67;30.73;;;8.90;99.90;;;;;;5002256;28;20256;-82
2023/04/09 06:47:36;;;;;;;43.05;28.77;;;8.80;99.90;;;;;;4992495;28;20214;-82
2023/04/09 06:50:04;;;;;;;43.25;28.92;;;8.70;99.90;;;;;;5000613;28;20405;-83
2023/04/09 06:52:30;;;;;;;42.33;27.50;;;8.30;99.90;;;;;;5009338;28;20205;-82
2023/04/09 06:54:57;;;;;;;45.33;30.45;;;7.90;99.90;;;;;;4997457;28;20564;-80
2023/04/09 06:57:25;;;;;;;45.05;31.83;;;7.70;99.90;;;;;;5000568;28;20395;-82
2023/04/09 06:59:52;;;;;;;50.03;33.25;;;7.70;99.90;;;;;;5003332;28;20209;-80
2023/04/09 07:02:19;;;;;;;46.85;32.45;;;7.70;99.90;;;;;;5005600;28;20567;-81
2023/04/09 07:04:47;;;;;;;56.38;33.60;;;7.80;99.90;;;;;;5003543;28;20542;-83
2023/04/09 07:07:14;;;;;;;45.53;30.02;;;7.90;99.90;;;;;;5006935;28;20211;-80
2023/04/09 07:09:41;;;;;;;51.40;32.25;;;7.80;99.90;;;;;;5001576;28;20210;-80
2023/04/09 07:12:08;;;;;;;48.25;29.50;;;7.60;99.90;;;;;;5006244;28;20256;-81
2023/04/09 07:14:36;;;;;;;48.92;32.50;;;7.50;99.90;;;;;;5009667;28;20199;-81
2023/04/09 07:17:03;;;;;;;44.63;31.15;;;7.30;99.90;;;;;;5001961;28;20213;-80
2023/04/09 07:19:30;;;;;;;48.67;34.10;;;7.40;99.90;;;;;;5011143;28;20517;-81
2023/04/09 07:21:57;;;;;;;46.53;33.08;;;7.40;99.90;;;;;;5000194;28;20210;-80
2023/04/09 07:24:24;;;;;;;52.13;32.85;;;7.30;99.90;;;;;;5013241;28;20235;-81
2023/04/09 07:26:51;;;;;;;55.40;35.20;;;7.50;99.90;;;;;;5002038;28;20209;-81
2023/04/09 07:29:19;;;;;;;48.85;33.30;;;7.50;99.90;;;;;;5005968;28;20528;-81
2023/04/09 07:31:46;;;;;;;55.05;35.30;;;7.60;99.90;;;;;;5006239;28;20333;-81
2023/04/09 07:34:13;;;;;;;49.58;33.28;;;7.70;99.90;;;;;;5001328;28;20259;-82
2023/04/09 07:36:41;;;;;;;53.63;34.60;;;7.60;99.90;;;;;;5011251;28;20256;-81
2023/04/09 07:39:08;;;;;;;56.55;36.08;;;7.90;99.90;;;;;;5016650;28;20209;-81
2023/04/09 07:41:36;;;;;;;51.28;34.90;;;7.80;99.90;;;;;;5000016;28;20434;-81
2023/04/09 07:44:05;;;;;;;49.83;31.90;;;7.80;99.90;;;;;;5002479;28;20209;-82
2023/04/09 07:46:32;;;;;;;53.78;33.67;;;7.80;99.90;;;;;;5005434;28;20226;-82
2023/04/09 07:48:59;;;;;;;46.22;30.40;;;7.90;99.90;;;;;;5001447;28;20561;-83
2023/04/09 07:51:26;;;;;;;57.78;31.92;;;7.90;99.90;;;;;;5014773;28;20212;-81
2023/04/09 07:53:53;;;;;;;50.10;35.95;;;8.10;99.90;;;;;;5030243;28;20216;-81
2023/04/09 07:56:21;;;;;;;48.45;32.58;;;8.20;99.90;;;;;;5014861;28;20263;-81
2023/04/09 07:58:48;;;;;;;47.78;32.60;;;8.30;99.90;;;;;;5016735;28;20218;-82
2023/04/09 08:01:15;;;;;;;45.50;32.85;;;8.10;99.90;;;;;;5024142;28;20216;-82
2023/04/09 08:03:42;;;;;;;43.13;32.40;;;8.10;99.90;;;;;;5011836;28;20212;-81
2023/04/09 08:06:09;;;;;;;56.80;32.28;;;8.10;99.90;;;;;;5010643;28;20214;-81
2023/04/09 08:08:36;;;;;;;43.58;30.30;;;8.20;99.90;;;;;;5005072;28;20448;-83
2023/04/09 08:11:04;;;;;;;47.97;30.83;;;8.50;99.90;;;;;;5001560;28;20213;-81
2023/04/09 08:13:31;;;;;;;51.10;33.15;;;8.60;99.90;;;;;;5010588;28;20205;-82
2023/04/09 08:16:02;;;;;;;47.55;33.20;;;8.70;99.90;;;;;;5000260;28;20242;-82
2023/04/09 08:18:30;;;;;;;46.78;30.25;;;8.50;99.90;;;;;;5009998;28;20209;-81
2023/04/09 08:20:58;;;;;;;41.03;28.80;;;8.40;99.90;;;;;;5005156;28;20238;-81
2023/04/09 08:23:25;;;;;;;44.95;31.52;;;8.50;99.90;;;;;;5008672;28;20268;-82
2023/04/09 08:25:52;;;;;;;49.05;29.35;;;8.50;99.90;;;;;;4999716;28;20268;-83
2023/04/09 08:28:18;;;;;;;43.35;28.83;;;8.40;99.90;;;;;;5007683;28;20198;-81
2023/04/09 08:30:48;;;;;;;47.20;31.63;;;8.40;99.90;;;;;;5002401;28;20273;-82
2023/04/09 08:33:18;;;;;;;48.20;30.90;;;8.40;99.90;;;;;;4991848;28;20215;-81
2023/04/09 08:35:45;;;;;;;45.92;33.35;;;8.40;99.90;;;;;;5004638;28;20252;-82
2023/04/09 08:38:15;;;;;;;42.42;29.05;;;8.50;99.90;;;;;;5001761;28;20240;-81
2023/04/09 08:40:43;;;;;;;47.42;32.22;;;8.70;99.90;;;;;;5010370;28;20305;-82
2023/04/09 08:43:14;;;;;;;43.42;29.73;;;8.90;99.90;;;;;;5003167;28;20612;-82
2023/04/09 08:45:42;;;;;;;43.85;29.25;;;8.80;99.90;;;;;;4999326;28;20441;-82
2023/04/09 08:48:11;;;;;;;45.50;30.95;;;8.80;99.90;;;;;;5012130;28;20233;-82
2023/04/09 08:50:39;;;;;;;38.55;28.45;;;8.90;99.90;;;;;;5005619;28;20233;-82
2023/04/09 08:53:08;;;;;;;43.70;30.63;;;8.70;99.90;;;;;;5012295;28;20208;-82
2023/04/09 08:55:36;;;;;;;44.40;27.65;;;8.60;99.90;;;;;;5007192;28;20229;-82
2023/04/09 08:58:06;;;;;;;39.03;27.55;;;8.70;99.90;;;;;;5004528;28;20209;-82
2023/04/09 09:00:33;;;;;;;41.88;27.38;;;8.70;99.90;;;;;;5008130;28;20230;-83
2023/04/09 09:03:09;;;;;;;44.58;31.20;;;9.10;99.90;;;;;;5011384;28;20738;-82
2023/04/09 09:05:43;;;;;;;38.13;28.95;;;9.10;99.90;;;;;;5001253;28;20486;-82
2023/04/09 09:08:25;;;;;;;47.05;28.90;;;9.20;99.90;;;;;;5012539;28;20530;-81
2023/04/09 09:10:52;;;;;;;42.60;29.08;;;9.30;99.90;;;;;;4996929;28;20286;-82
2023/04/09 09:13:22;;;;;;;39.28;27.58;;;9.40;99.90;;;;;;5005030;28;20216;-82
2023/04/09 09:15:54;;;;;;;43.00;27.65;;;9.60;99.90;;;;;;4999326;28;20237;-82
2023/04/09 09:18:40;;;;;;;42.13;29.00;;;9.70;99.90;;;;;;4999492;28;20206;-82
2023/04/09 09:21:18;;;;;;;40.30;28.33;;;9.90;99.90;;;;;;4994741;28;20230;-82
2023/04/09 09:23:47;;;;;;;46.05;29.10;;;9.70;99.90;;;;;;5003782;28;20530;-82
2023/04/09 09:26:17;;;;;;;35.83;27.00;;;9.80;99.90;;;;;;5008008;28;20209;-83
2023/04/09 09:28:47;;;;;;;43.25;29.00;;;10.10;99.90;;;;;;5003580;28;20210;-83
2023/04/09 09:31:15;;;;;;;46.25;30.45;;;10.20;99.90;;;;;;4998639;28;20210;-82
2023/04/09 09:33:42;;;;;;;40.85;27.70;;;10.10;99.90;;;;;;4992384;28;20270;-81
2023/04/09 09:36:10;;;;;;;42.47;26.33;;;9.60;99.90;;;;;;4992499;28;20230;-81
2023/04/09 09:38:57;;;;;;;43.05;27.58;;;9.30;99.90;;;;;;4995499;28;20201;-81
2023/04/09 09:41:24;;;;;;;43.95;27.50;;;9.00;99.90;;;;;;4996324;28;20205;-82
2023/04/09 09:43:51;;;;;;;39.22;25.85;;;8.90;99.90;;;;;;5009863;28;20494;-82
2023/04/09 09:46:20;;;;;;;40.47;25.75;;;8.80;99.90;;;;;;5007139;28;20202;-82
2023/04/09 09:48:48;;;;;;;44.83;28.25;;;8.80;99.90;;;;;;5005783;28;20388;-82
2023/04/09 09:51:16;;;;;;;43.97;26.38;;;8.90;99.90;;;;;;5002090;28;20220;-82
2023/04/09 09:53:44;;;;;;;39.75;28.25;;;8.80;99.90;;;;;;4997670;28;20210;-83
2023/04/09 09:56:17;;;;;;;40.08;27.42;;;8.90;99.90;;;;;;5025949;28;20269;-83
2023/04/09 09:59:08;;;;;;;40.05;25.15;;;9.10;99.90;;;;;;5024473;28;20256;-83
2023/04/09 10:01:35;;;;;;;41.13;28.27;;;9.30;99.90;;;;;;5007176;28;20201;-84
2023/04/09 10:04:05;;;;;;;36.42;27.13;;;9.50;99.90;;;;;;4999844;28;20616;-82
2023/04/09 10:06:37;;;;;;;37.90;25.73;;;9.70;99.90;;;;;;5003492;28;20256;-84
2023/04/09 10:09:05;;;;;;;34.42;25.88;;;9.60;99.90;;;;;;5009812;28;20232;-82
2023/04/09 10:11:35;;;;;;;40.63;27.92;;;9.70;99.90;;;;;;5001559;28;20205;-81
2023/04/09 10:14:04;;;;;;;46.20;29.27;;;9.80;99.90;;;;;;4996848;28;20253;-83
2023/04/09 10:16:32;;;;;;;42.78;28.60;;;9.70;99.90;;;;;;5001000;28;20545;-81
2023/04/09 10:19:00;;;;;;;45.08;26.27;;;9.80;99.90;;;;;;5012573;28;20250;-81
2023/04/09 10:21:46;;;;;;;40.25;27.80;;;9.80;99.90;;;;;;5008459;28;20207;-83
2023/04/09 10:24:14;;;;;;;41.15;26.58;;;9.40;99.90;;;;;;5000525;28;20210;-83
2023/04/09 10:26:45;;;;;;;43.20;28.38;;;9.20;99.90;;;;;;5000116;28;20216;-82
2023/04/09 10:29:15;;;;;;;41.85;26.83;;;9.20;99.90;;;;;;5003565;28;20388;-81
2023/04/09 10:32:09;;;;;;;40.20;27.92;;;9.30;99.90;;;;;;5008116;28;20261;-82
2023/04/09 10:34:40;;;;;;;41.92;26.58;;;9.50;99.90;;;;;;4988570;28;20212;-82
2023/04/09 10:37:22;;;;;;;42.08;27.75;;;9.20;99.90;;;;;;5006761;28;20232;-80
2023/04/09 10:39:51;;;;;;;39.05;28.80;;;9.00;99.90;;;;;;4994026;28;20260;-80
2023/04/09 10:42:40;;;;;;;43.95;28.25;;;8.70;99.90;;;;;;4992889;28;20206;-81
2023/04/09 10:45:12;;;;;;;42.08;27.88;;;8.50;99.90;;;;;;4994513;28;20228;-81
2023/04/09 10:47:42;;;;;;;46.55;29.77;;;8.40;99.90;;;;;;4994319;28;20215;-81
2023/04/09 10:50:18;;;;;;;43.78;27.23;;;8.40;99.90;;;;;;5001190;28;20289;-81
2023/04/09 10:52:46;;;;;;;48.28;29.23;;;8.30;99.90;;;;;;4991262;28;20205;-80
2023/04/09 10:55:35;;;;;;;41.00;27.15;;;8.30;99.90;;;;;;5002416;28;20505;-81
2023/04/09 10:58:04;;;;;;;44.33;26.75;;;8.30;99.90;;;;;;4997779;28;20213;-79
2023/04/09 11:00:37;;;;;;;44.60;29.23;;;8.30;99.90;;;;;;5001881;28;20212;-81
2023/04/09 11:03:18;;;;;;;50.47;28.60;;;8.30;99.90;;;;;;5010937;28;20217;-81
2023/04/09 11:05:58;;;;;;;41.53;29.25;;;8.30;99.90;;;;;;5001304;28;20206;-80
2023/04/09 11:08:29;;;;;;;45.50;29.42;;;8.40;99.90;;;;;;5002214;28;20560;-80
2023/04/09 11:10:57;;;;;;;46.63;30.88;;;8.60;99.90;;;;;;5012223;28;20206;-81
2023/04/09 11:13:24;;;;;;;47.20;31.13;;;8.40;99.90;;;;;;4999771;28;20462;-82
2023/04/09 11:15:54;;;;;;;45.50;29.25;;;8.30;99.90;;;;;;5001390;28;20241;-81
2023/04/09 11:18:25;;;;;;;42.97;28.73;;;8.30;99.90;;;;;;5008841;28;20235;-82
2023/04/09 11:20:54;;;;;;;41.72;27.60;;;8.30;99.90;;;;;;4999591;28;20207;-81
2023/04/09 11:23:23;;;;;;;36.33;27.02;;;8.20;99.90;;;;;;5013640;28;20843;-83
2023/04/09 11:25:51;;;;;;;41.55;26.52;;;8.30;99.90;;;;;;5003409;28;20244;-82
2023/04/09 11:28:19;;;;;;;46.75;28.60;;;8.40;99.90;;;;;;5011823;28;20270;-82
2023/04/09 11:30:46;;;;;;;42.05;29.70;;;8.50;99.90;;;;;;5005191;28;20240;-81
2023/04/09 11:33:13;;;;;;;42.58;29.02;;;8.40;99.90;;;;;;4992508;28;20271;-81
2023/04/09 11:35:44;;;;;;;45.25;30.55;;;8.30;99.90;;;;;;4999501;28;20206;-80
2023/04/09 11:38:11;;;;;;;49.63;30.90;;;8.30;99.90;;;;;;5000933;28;20434;-80
2023/04/09 11:40:48;;;;;;;38.70;26.67;;;8.40;99.90;;;;;;5004204;28;20202;-82
2023/04/09 11:43:16;;;;;;;45.30;29.15;;;8.50;99.90;;;;;;5000422;28;20393;-81
2023/04/09 11:45:43;;;;;;;46.40;28.92;;;8.60;99.90;;;;;;5011535;28;20205;-81
2023/04/09 11:48:12;;;;;;;41.40;29.23;;;8.60;99.90;;;;;;5003284;28;20209;-81
2023/04/09 11:50:40;;;;;;;50.60;30.48;;;8.90;99.90;;;;;;5011692;28;20209;-82
2023/04/09 11:53:20;;;;;;;40.08;27.20;;;9.10;99.90;;;;;;5004656;28;20213;-82
2023/04/09 11:55:52;;;;;;;42.33;31.73;;;9.30;99.90;;;;;;5004659;28;20433;-83
2023/04/09 11:58:24;;;;;;;38.78;27.33;;;9.20;99.90;;;;;;5004750;28;20221;-81
2023/04/09 12:00:57;;;;;;;42.78;29.33;;;9.20;99.90;;;;;;4997543;28;20224;-81
2023/04/09 12:03:35;;;;;;;39.55;27.33;;;9.00;99.90;;;;;;4992359;28;20210;-82
2023/04/09 12:06:04;;;;;;;39.22;30.10;;;8.90;99.90;;;;;;4998117;28;20221;-82
2023/04/09 12:08:35;;;;;;;39.10;26.33;;;9.00;99.90;;;;;;4998847;28;20205;-82
2023/04/09 12:11:14;;;;;;;40.70;28.65;;;9.00;99.90;;;;;;4994507;28;20213;-82
2023/04/09 12:13:43;;;;;;;45.13;31.02;;;9.00;99.90;;;;;;5008386;28;20636;-83
2023/04/09 12:16:12;;;;;;;43.97;30.25;;;9.10;99.90;;;;;;5008115;28;20430;-84
2023/04/09 12:18:40;;;;;;;38.08;25.70;;;9.20;99.90;;;;;;5007450;28;20443;-82
2023/04/09 12:21:09;;;;;;;45.15;29.02;;;9.10;99.90;;;;;;5003173;28;20561;-83
2023/04/09 12:23:36;;;;;;;44.60;29.95;;;9.20;99.90;;;;;;5006243;28;20210;-85
2023/04/09 12:26:03;;;;;;;39.78;28.30;;;9.20;99.90;;;;;;5016549;28;20202;-87
2023/04/09 12:28:33;;;;;;;37.55;28.45;;;9.40;99.90;;;;;;5008471;28;20236;-84
2023/04/09 12:31:23;;;;;;;38.28;24.40;;;9.30;99.90;;;;;;5003413;28;20218;-87
2023/04/09 12:33:56;;;;;;;41.22;27.38;;;9.40;99.90;;;;;;5007415;28;20197;-84
2023/04/09 12:36:23;;;;;;;43.15;28.10;;;9.20;99.90;;;;;;5020182;28;20217;-84
2023/04/09 12:38:50;;;;;;;44.40;31.92;;;9.30;99.90;;;;;;5000610;28;20225;-84
2023/04/09 12:41:18;;;;;;;44.90;28.10;;;9.60;99.90;;;;;;5017835;28;20228;-83
2023/04/09 12:43:46;;;;;;;41.45;29.83;;;9.60;99.90;;;;;;5010075;28;20209;-81
2023/04/09 12:46:13;;;;;;;44.05;29.38;;;9.60;99.90;;;;;;5007332;28;20225;-81